Time;durP1;ratioP1;P1;durP2;ratioP2;P2;SDS_P1;SDS_P2;PMS_P1;PMS_P2;Temp;Humidity;BMP_temperature;BMP_pressure;BME280_temperature;BME280_humidity;BME280_pressure;Samples;Min_cycle;Max_cycle;Signal;HPM_P1;HPM_P2
2021/08/31 00:00:37;;;;;;;47.47;33.92;;;;;;;;;;2087218;28;20259;-52
2021/08/31 00:01:38;;;;;;;50.75;34.10;;;;;;;;;;2088204;28;20616;-52
2021/08/31 00:02:38;;;;;;;45.92;34.10;;;;;;;;;;2086642;28;20691;-53
2021/08/31 00:03:38;;;;;;;49.08;33.15;;;;;;;;;;2086927;28;20180;-54
2021/08/31 00:04:38;;;;;;;49.05;35.72;;;;;;;;;;2086313;28;20184;-55
2021/08/31 00:05:39;;;;;;;45.53;32.65;;;;;;;;;;2080053;28;20176;-58
2021/08/31 00:06:39;;;;;;;49.60;32.88;;;;;;;;;;2078250;28;20195;-54
2021/08/31 00:07:39;;;;;;;47.83;34.65;;;;;;;;;;2080955;28;20208;-55
2021/08/31 00:08:39;;;;;;;50.58;36.83;;;;;;;;;;2078599;28;20544;-52
2021/08/31 00:09:40;;;;;;;47.65;33.28;;;;;;;;;;2086989;28;20191;-56
2021/08/31 00:10:40;;;;;;;48.03;35.13;;;;;;;;;;2087862;28;20259;-57
2021/08/31 00:11:40;;;;;;;47.50;34.47;;;;;;;;;;2087192;28;20568;-52
2021/08/31 00:12:41;;;;;;;56.25;39.75;;;;;;;;;;2088029;28;20190;-53
2021/08/31 00:13:41;;;;;;;56.80;37.95;;;;;;;;;;2086744;28;20207;-52
2021/08/31 00:14:41;;;;;;;53.28;38.05;;;;;;;;;;2089106;28;20179;-52
2021/08/31 00:15:41;;;;;;;56.17;40.30;;;;;;;;;;2089048;28;20179;-55
2021/08/31 00:16:42;;;;;;;57.13;40.25;;;;;;;;;;2086920;28;20524;-54
2021/08/31 00:17:42;;;;;;;58.00;41.80;;;;;;;;;;2087074;28;20200;-56
2021/08/31 00:18:43;;;;;;;60.50;42.28;;;;;;;;;;2086680;28;20192;-52
2021/08/31 00:19:44;;;;;;;65.07;43.70;;;;;;;;;;2086529;28;20171;-52
2021/08/31 00:20:44;;;;;;;69.13;44.20;;;;;;;;;;2087565;28;20196;-52
2021/08/31 00:21:44;;;;;;;61.25;41.78;;;;;;;;;;2087407;28;20516;-56
2021/08/31 00:22:45;;;;;;;63.80;41.83;;;;;;;;;;2086487;28;20594;-52
2021/08/31 00:23:45;;;;;;;63.60;42.67;;;;;;;;;;2086868;28;20179;-53
2021/08/31 00:24:45;;;;;;;67.97;43.22;;;;;;;;;;2086520;28;20222;-54
2021/08/31 00:25:45;;;;;;;66.40;43.05;;;;;;;;;;2085943;28;20215;-55
2021/08/31 00:26:45;;;;;;;72.07;45.17;;;;;;;;;;2087671;28;20180;-52
2021/08/31 00:27:46;;;;;;;70.43;43.13;;;;;;;;;;2086492;28;20187;-52
2021/08/31 00:28:46;;;;;;;64.60;41.33;;;;;;;;;;2085611;28;20164;-51
2021/08/31 00:29:46;;;;;;;71.43;43.58;;;;;;;;;;2085508;28;20176;-56
2021/08/31 00:30:46;;;;;;;72.72;44.45;;;;;;;;;;2085407;28;20290;-55
2021/08/31 00:31:48;;;;;;;69.32;44.55;;;;;;;;;;2085468;28;20176;-54
2021/08/31 00:32:48;;;;;;;67.90;43.92;;;;;;;;;;2088341;28;20681;-55
2021/08/31 00:33:49;;;;;;;79.70;47.80;;;;;;;;;;2087096;28;20182;-54
2021/08/31 00:34:49;;;;;;;66.53;42.67;;;;;;;;;;2088853;28;20174;-51
2021/08/31 00:35:49;;;;;;;71.80;44.63;;;;;;;;;;2087028;28;20176;-54
2021/08/31 00:36:49;;;;;;;76.88;47.20;;;;;;;;;;2084497;28;20179;-53
2021/08/31 00:37:50;;;;;;;79.22;47.17;;;;;;;;;;2089295;28;20422;-54
2021/08/31 00:38:51;;;;;;;62.42;42.30;;;;;;;;;;2085990;28;20306;-55
2021/08/31 00:39:51;;;;;;;72.57;45.03;;;;;;;;;;2086996;28;20241;-56
2021/08/31 00:40:51;;;;;;;74.40;46.47;;;;;;;;;;2086494;28;20187;-51
2021/08/31 00:41:52;;;;;;;73.45;45.33;;;;;;;;;;2086416;28;20660;-55
2021/08/31 00:42:52;;;;;;;77.43;47.47;;;;;;;;;;2086362;28;20574;-55
2021/08/31 00:43:53;;;;;;;66.93;45.80;;;;;;;;;;2086969;28;20176;-54
2021/08/31 00:44:53;;;;;;;69.65;45.15;;;;;;;;;;2087334;28;20270;-56
2021/08/31 00:45:56;;;;;;;72.15;45.83;;;;;;;;;;2075896;28;20168;-52
2021/08/31 00:46:57;;;;;;;75.20;46.22;;;;;;;;;;2078779;28;20172;-52
2021/08/31 00:47:58;;;;;;;70.57;47.42;;;;;;;;;;2084147;28;20216;-55
2021/08/31 00:48:58;;;;;;;69.18;45.10;;;;;;;;;;2089354;28;20188;-53
2021/08/31 00:49:58;;;;;;;69.15;45.13;;;;;;;;;;2088934;28;20279;-51
2021/08/31 00:50:58;;;;;;;72.35;45.80;;;;;;;;;;2087164;28;20176;-53
2021/08/31 00:51:59;;;;;;;72.88;45.63;;;;;;;;;;2087325;28;20172;-53
2021/08/31 00:52:59;;;;;;;68.03;46.45;;;;;;;;;;2084031;28;20230;-55
2021/08/31 00:54:00;;;;;;;70.35;45.40;;;;;;;;;;2086926;28;20208;-55
2021/08/31 00:55:01;;;;;;;65.45;43.20;;;;;;;;;;2085599;28;20175;-50
2021/08/31 00:56:02;;;;;;;65.05;43.28;;;;;;;;;;2086648;28;20222;-52
2021/08/31 00:57:03;;;;;;;68.25;44.00;;;;;;;;;;2087179;28;20682;-53
2021/08/31 00:58:04;;;;;;;62.65;42.53;;;;;;;;;;2087063;28;20215;-56
2021/08/31 00:59:06;;;;;;;70.45;43.25;;;;;;;;;;2087507;28;20191;-54
2021/08/31 01:00:08;;;;;;;66.25;42.03;;;;;;;;;;2087381;28;20663;-55
2021/08/31 01:01:09;;;;;;;59.47;39.45;;;;;;;;;;2087477;28;20191;-55
2021/08/31 01:02:09;;;;;;;65.72;42.67;;;;;;;;;;2087556;28;20195;-59
2021/08/31 01:03:09;;;;;;;63.67;40.92;;;;;;;;;;2088597;28;20167;-56
2021/08/31 01:04:09;;;;;;;61.03;41.80;;;;;;;;;;2090074;28;20674;-54
2021/08/31 01:05:10;;;;;;;56.17;38.95;;;;;;;;;;2089391;28;20187;-55
2021/08/31 01:06:11;;;;;;;57.35;39.75;;;;;;;;;;2088111;28;20172;-54
2021/08/31 01:07:11;;;;;;;52.78;38.05;;;;;;;;;;2090443;28;20164;-55
2021/08/31 01:08:12;;;;;;;57.97;40.13;;;;;;;;;;2089478;28;20210;-55
2021/08/31 01:09:12;;;;;;;57.38;38.75;;;;;;;;;;2081291;28;20179;-54
2021/08/31 01:10:14;;;;;;;60.13;39.17;;;;;;;;;;2085347;28;20176;-55
2021/08/31 01:11:14;;;;;;;57.88;38.97;;;;;;;;;;2087493;28;20225;-53
2021/08/31 01:12:16;;;;;;;56.70;37.75;;;;;;;;;;2081348;28;20172;-56
2021/08/31 01:13:16;;;;;;;61.35;40.47;;;;;;;;;;2079461;28;20621;-57
2021/08/31 01:14:17;;;;;;;56.58;38.63;;;;;;;;;;2080394;28;20279;-55
2021/08/31 01:15:17;;;;;;;52.70;36.97;;;;;;;;;;2085557;28;20212;-58
2021/08/31 01:16:17;;;;;;;54.80;35.67;;;;;;;;;;2086180;28;20179;-54
2021/08/31 01:17:17;;;;;;;59.83;38.80;;;;;;;;;;2086262;28;20188;-52
2021/08/31 01:18:20;;;;;;;53.45;35.50;;;;;;;;;;2084516;28;20262;-56
2021/08/31 01:19:24;;;;;;;51.38;37.63;;;;;;;;;;2078391;28;20176;-54
2021/08/31 01:20:25;;;;;;;57.65;36.88;;;;;;;;;;2081037;28;20661;-51
2021/08/31 01:21:33;;;;;;;53.10;35.65;;;;;;;;;;2085118;28;20250;-52
2021/08/31 01:22:33;;;;;;;58.80;37.58;;;;;;;;;;2089654;28;20164;-54
2021/08/31 01:23:33;;;;;;;53.72;36.85;;;;;;;;;;2088887;28;20182;-56
2021/08/31 01:24:34;;;;;;;56.25;38.65;;;;;;;;;;2088131;28;20187;-56
2021/08/31 01:25:35;;;;;;;57.10;39.42;;;;;;;;;;2092276;28;20175;-56
2021/08/31 01:26:35;;;;;;;56.20;37.53;;;;;;;;;;2091321;28;20181;-53
2021/08/31 01:27:35;;;;;;;55.97;37.00;;;;;;;;;;2088299;28;20218;-53
2021/08/31 01:28:35;;;;;;;62.58;39.08;;;;;;;;;;2084730;28;20169;-53
2021/08/31 01:29:36;;;;;;;59.17;38.83;;;;;;;;;;2090077;28;20179;-58
2021/08/31 01:30:36;;;;;;;54.33;37.50;;;;;;;;;;2083782;28;20170;-57
2021/08/31 01:31:37;;;;;;;62.00;40.10;;;;;;;;;;2083035;28;20190;-56
2021/08/31 01:32:37;;;;;;;56.33;38.15;;;;;;;;;;2090892;28;20972;-57
2021/08/31 01:33:37;;;;;;;62.65;39.25;;;;;;;;;;2083954;28;20180;-57
2021/08/31 01:34:38;;;;;;;60.47;38.33;;;;;;;;;;2081371;28;20199;-57
2021/08/31 01:35:38;;;;;;;66.28;39.90;;;;;;;;;;2090841;28;20179;-55
2021/08/31 01:36:38;;;;;;;57.00;38.42;;;;;;;;;;2083018;28;20183;-54
2021/08/31 01:37:38;;;;;;;47.65;35.28;;;;;;;;;;2082578;28;20184;-56
2021/08/31 01:38:39;;;;;;;55.42;37.30;;;;;;;;;;2081227;28;20255;-52
2021/08/31 01:39:39;;;;;;;47.35;32.10;;;;;;;;;;2070538;28;20268;-54
2021/08/31 01:40:40;;;;;;;48.30;34.83;;;;;;;;;;2081895;28;20218;-54
2021/08/31 01:41:40;;;;;;;52.78;36.47;;;;;;;;;;2075926;28;20610;-56
2021/08/31 01:42:40;;;;;;;52.58;34.42;;;;;;;;;;2081874;28;20319;-53
2021/08/31 01:43:40;;;;;;;46.47;33.92;;;;;;;;;;2086089;28;20172;-54
2021/08/31 01:44:41;;;;;;;54.08;34.80;;;;;;;;;;2088748;28;20738;-57
2021/08/31 01:45:45;;;;;;;48.22;33.58;;;;;;;;;;2084925;28;20168;-54
2021/08/31 01:46:45;;;;;;;48.60;34.30;;;;;;;;;;2087943;28;20165;-54
2021/08/31 01:47:45;;;;;;;46.25;33.53;;;;;;;;;;2086722;28;20696;-54
2021/08/31 01:48:46;;;;;;;50.78;34.97;;;;;;;;;;2081437;28;20200;-56
2021/08/31 01:49:46;;;;;;;48.08;34.72;;;;;;;;;;2081558;28;20218;-55
2021/08/31 01:50:46;;;;;;;49.55;34.67;;;;;;;;;;2085998;28;20177;-54
2021/08/31 01:51:47;;;;;;;45.58;32.70;;;;;;;;;;2085784;28;20176;-54
2021/08/31 01:52:47;;;;;;;50.33;33.58;;;;;;;;;;2087066;28;20705;-53
2021/08/31 01:53:47;;;;;;;47.65;34.30;;;;;;;;;;2085517;28;20215;-52
2021/08/31 01:54:47;;;;;;;51.58;35.40;;;;;;;;;;2085561;28;20179;-57
2021/08/31 01:55:47;;;;;;;50.45;35.35;;;;;;;;;;2084853;28;20652;-57
2021/08/31 01:56:48;;;;;;;50.65;35.70;;;;;;;;;;2085729;28;20176;-53
2021/08/31 01:57:48;;;;;;;58.25;36.90;;;;;;;;;;2086629;28;20230;-54
2021/08/31 01:58:48;;;;;;;55.95;36.65;;;;;;;;;;2085581;28;20651;-56
2021/08/31 01:59:49;;;;;;;54.95;36.25;;;;;;;;;;2084302;28;20262;-56
2021/08/31 02:00:49;;;;;;;59.85;37.05;;;;;;;;;;2086991;28;20184;-57
2021/08/31 02:01:49;;;;;;;54.58;35.25;;;;;;;;;;2085574;28;20156;-57
2021/08/31 02:02:49;;;;;;;52.28;34.38;;;;;;;;;;2084988;28;20226;-55
2021/08/31 02:03:50;;;;;;;49.38;34.83;;;;;;;;;;2086826;28;20187;-54
2021/08/31 02:04:50;;;;;;;56.88;35.85;;;;;;;;;;2087381;28;20176;-56
2021/08/31 02:05:50;;;;;;;51.60;36.53;;;;;;;;;;2088489;28;20175;-53
2021/08/31 02:06:50;;;;;;;53.05;35.25;;;;;;;;;;2086866;28;20175;-55
2021/08/31 02:07:51;;;;;;;55.10;36.72;;;;;;;;;;2086384;28;20199;-56
2021/08/31 02:08:51;;;;;;;57.60;37.53;;;;;;;;;;2088807;28;20175;-57
2021/08/31 02:09:51;;;;;;;58.47;37.15;;;;;;;;;;2089070;28;20697;-57
2021/08/31 02:10:51;;;;;;;54.88;37.92;;;;;;;;;;2088109;28;20823;-56
2021/08/31 02:11:51;;;;;;;55.78;36.85;;;;;;;;;;2086599;28;20549;-55
2021/08/31 02:12:52;;;;;;;61.63;37.95;;;;;;;;;;2085819;28;20172;-53
2021/08/31 02:13:52;;;;;;;58.78;37.33;;;;;;;;;;2085893;28;20522;-56
2021/08/31 02:14:52;;;;;;;58.47;36.95;;;;;;;;;;2087846;28;20179;-53
2021/08/31 02:15:53;;;;;;;56.15;38.20;;;;;;;;;;2084951;28;20757;-54
2021/08/31 02:16:53;;;;;;;56.08;37.63;;;;;;;;;;2079324;28;20184;-55
2021/08/31 02:17:53;;;;;;;54.20;37.22;;;;;;;;;;2068265;28;20192;-52
2021/08/31 02:18:53;;;;;;;50.83;34.92;;;;;;;;;;2076681;28;20234;-56
2021/08/31 02:19:54;;;;;;;54.55;34.67;;;;;;;;;;2086728;28;20175;-56
2021/08/31 02:20:54;;;;;;;62.72;38.70;;;;;;;;;;2086008;28;20174;-53
2021/08/31 02:21:54;;;;;;;59.53;37.35;;;;;;;;;;2079713;28;20351;-53
2021/08/31 02:22:54;;;;;;;52.45;35.17;;;;;;;;;;2080194;28;20595;-52
2021/08/31 02:23:55;;;;;;;52.80;35.40;;;;;;;;;;2085546;28;20172;-52
2021/08/31 02:24:55;;;;;;;53.80;37.05;;;;;;;;;;2084367;28;20168;-52
2021/08/31 02:25:55;;;;;;;54.47;36.30;;;;;;;;;;2085011;28;20559;-54
2021/08/31 02:26:55;;;;;;;54.88;34.85;;;;;;;;;;2086389;28;20171;-54
2021/08/31 02:27:56;;;;;;;49.25;34.92;;;;;;;;;;2086233;28;20184;-54
2021/08/31 02:28:56;;;;;;;51.88;32.53;;;;;;;;;;2084340;28;20199;-50
2021/08/31 02:29:56;;;;;;;44.78;33.17;;;;;;;;;;2086262;28;20528;-53
2021/08/31 02:30:58;;;;;;;45.47;31.17;;;;;;;;;;2084114;28;20211;-55
2021/08/31 02:31:58;;;;;;;43.53;31.30;;;;;;;;;;2085055;28;20171;-57
2021/08/31 02:33:02;;;;;;;40.42;28.95;;;;;;;;;;2086502;28;20179;-55
2021/08/31 02:34:03;;;;;;;39.17;29.80;;;;;;;;;;2084511;28;20552;-57
2021/08/31 02:35:04;;;;;;;39.05;28.85;;;;;;;;;;2086458;28;20163;-54
2021/08/31 02:36:05;;;;;;;38.05;29.00;;;;;;;;;;2087864;28;20195;-56
2021/08/31 02:37:05;;;;;;;37.28;27.70;;;;;;;;;;2084835;28;20172;-54
2021/08/31 02:38:05;;;;;;;37.50;29.20;;;;;;;;;;2079690;28;20642;-55
2021/08/31 02:39:05;;;;;;;45.85;29.42;;;;;;;;;;2078436;28;20555;-52
2021/08/31 02:40:06;;;;;;;40.50;28.50;;;;;;;;;;2070024;28;20219;-55
2021/08/31 02:41:06;;;;;;;44.67;28.27;;;;;;;;;;2079797;28;20176;-54
2021/08/31 02:42:06;;;;;;;36.30;26.70;;;;;;;;;;2079585;28;20184;-57
2021/08/31 02:43:07;;;;;;;38.75;28.20;;;;;;;;;;2079138;28;20255;-56
2021/08/31 02:44:07;;;;;;;37.17;27.75;;;;;;;;;;2078809;28;20167;-53
2021/08/31 02:45:08;;;;;;;37.35;26.20;;;;;;;;;;2085555;28;20600;-53
2021/08/31 02:46:08;;;;;;;38.25;27.20;;;;;;;;;;2083531;28;20246;-54
2021/08/31 02:47:08;;;;;;;42.33;27.30;;;;;;;;;;2084460;28;20692;-55
2021/08/31 02:48:08;;;;;;;33.60;27.33;;;;;;;;;;2085249;28;20187;-57
2021/08/31 02:49:09;;;;;;;34.67;25.65;;;;;;;;;;2086598;28;20184;-56
2021/08/31 02:50:09;;;;;;;36.25;25.95;;;;;;;;;;2086010;28;20167;-54
2021/08/31 02:51:09;;;;;;;34.70;25.30;;;;;;;;;;2088813;28;20176;-54
2021/08/31 02:52:10;;;;;;;30.08;23.92;;;;;;;;;;2088034;28;20179;-54
2021/08/31 02:53:11;;;;;;;33.53;23.92;;;;;;;;;;2085685;28;20179;-53
2021/08/31 02:54:11;;;;;;;29.85;24.20;;;;;;;;;;2085095;28;20207;-56
2021/08/31 02:55:12;;;;;;;32.10;24.98;;;;;;;;;;2087672;28;20184;-54
2021/08/31 02:56:13;;;;;;;28.35;23.30;;;;;;;;;;2086341;28;20171;-53
2021/08/31 02:57:14;;;;;;;34.90;24.83;;;;;;;;;;2088921;28;20195;-54
2021/08/31 02:58:15;;;;;;;33.35;23.70;;;;;;;;;;2087661;28;20262;-55
2021/08/31 02:59:15;;;;;;;33.60;25.45;;;;;;;;;;2086111;28;20175;-55
2021/08/31 03:00:19;;;;;;;32.83;24.67;;;;;;;;;;2086347;28;20199;-56
2021/08/31 03:01:32;;;;;;;32.08;24.35;;;;;;;;;;2087663;28;20182;-53
2021/08/31 03:02:32;;;;;;;28.42;23.70;;;;;;;;;;2089547;28;20277;-56
2021/08/31 03:03:32;;;;;;;30.08;25.30;;;;;;;;;;2088486;28;20179;-53
2021/08/31 03:04:36;;;;;;;31.35;23.92;;;;;;;;;;2088516;28;20171;-52
2021/08/31 03:05:37;;;;;;;32.47;23.45;;;;;;;;;;2087130;28;20239;-54
2021/08/31 03:06:37;;;;;;;29.67;24.25;;;;;;;;;;2085990;28;20176;-54
2021/08/31 03:07:37;;;;;;;30.83;23.90;;;;;;;;;;2090214;28;20618;-54
2021/08/31 03:08:38;;;;;;;31.17;23.58;;;;;;;;;;2087139;28;20318;-52
2021/08/31 03:09:38;;;;;;;29.30;23.67;;;;;;;;;;2084798;28;20180;-55
2021/08/31 03:10:39;;;;;;;32.00;24.48;;;;;;;;;;2076940;28;20662;-54
2021/08/31 03:11:39;;;;;;;31.60;24.90;;;;;;;;;;2079061;28;20164;-50
2021/08/31 03:12:39;;;;;;;31.15;23.75;;;;;;;;;;2088057;28;20262;-52
2021/08/31 03:13:39;;;;;;;31.63;25.10;;;;;;;;;;2081337;28;20210;-54
2021/08/31 03:14:40;;;;;;;32.47;23.15;;;;;;;;;;2061890;28;20162;-51
2021/08/31 03:15:40;;;;;;;26.13;22.85;;;;;;;;;;2072298;28;20195;-52
2021/08/31 03:16:40;;;;;;;29.33;23.40;;;;;;;;;;2087753;28;20194;-57
2021/08/31 03:17:40;;;;;;;31.80;23.83;;;;;;;;;;2087077;28;20203;-53
2021/08/31 03:18:41;;;;;;;30.17;23.05;;;;;;;;;;2086741;28;20524;-53
2021/08/31 03:19:41;;;;;;;29.98;23.92;;;;;;;;;;2088757;28;20172;-54
2021/08/31 03:20:41;;;;;;;31.05;23.80;;;;;;;;;;2088059;28;20175;-55
2021/08/31 03:21:42;;;;;;;28.83;23.98;;;;;;;;;;2087849;28;20184;-53
2021/08/31 03:22:42;;;;;;;26.02;22.92;;;;;;;;;;2078960;28;20169;-55
2021/08/31 03:23:42;;;;;;;28.00;23.35;;;;;;;;;;2081837;28;20185;-52
2021/08/31 03:24:42;;;;;;;29.42;23.85;;;;;;;;;;2090128;28;20624;-51
2021/08/31 03:25:43;;;;;;;29.15;23.70;;;;;;;;;;2088097;28;20180;-51
2021/08/31 03:26:43;;;;;;;29.80;23.58;;;;;;;;;;2090391;28;20172;-55
2021/08/31 03:27:44;;;;;;;28.30;22.85;;;;;;;;;;2090143;28;20192;-53
2021/08/31 03:28:45;;;;;;;30.85;24.15;;;;;;;;;;2081635;28;20161;-53
2021/08/31 03:29:46;;;;;;;28.13;23.23;;;;;;;;;;2077472;28;20177;-59
2021/08/31 03:30:46;;;;;;;30.58;23.63;;;;;;;;;;2089318;28;20160;-54
2021/08/31 03:31:46;;;;;;;29.05;23.98;;;;;;;;;;2087200;28;20674;-52
2021/08/31 03:32:47;;;;;;;30.45;22.42;;;;;;;;;;2084875;28;20766;-53
2021/08/31 03:33:47;;;;;;;26.58;22.95;;;;;;;;;;2087427;28;20277;-57
2021/08/31 03:34:47;;;;;;;27.75;23.48;;;;;;;;;;2084973;28;20191;-56
2021/08/31 03:35:47;;;;;;;26.67;23.13;;;;;;;;;;2087387;28;20225;-55
2021/08/31 03:36:49;;;;;;;29.77;23.58;;;;;;;;;;2090812;28;20218;-54
2021/08/31 03:37:50;;;;;;;30.38;24.63;;;;;;;;;;2090663;28;20226;-56
2021/08/31 03:38:50;;;;;;;26.65;23.10;;;;;;;;;;2090202;28;20167;-55
2021/08/31 03:39:50;;;;;;;28.50;22.85;;;;;;;;;;2089915;28;20194;-54
2021/08/31 03:40:50;;;;;;;31.60;23.30;;;;;;;;;;2089953;28;20171;-55
2021/08/31 03:41:51;;;;;;;27.10;23.00;;;;;;;;;;2089942;28;20233;-53
2021/08/31 03:42:51;;;;;;;29.23;23.83;;;;;;;;;;2090014;28;20560;-52
2021/08/31 03:43:52;;;;;;;30.40;23.35;;;;;;;;;;2089917;28;20166;-57
2021/08/31 03:44:53;;;;;;;29.38;23.30;;;;;;;;;;2089417;28;20167;-54
2021/08/31 03:45:53;;;;;;;26.15;22.23;;;;;;;;;;2089946;28;20687;-54
2021/08/31 03:46:53;;;;;;;26.73;22.90;;;;;;;;;;2089143;28;20632;-52
2021/08/31 03:47:53;;;;;;;30.23;22.38;;;;;;;;;;2089748;28;20856;-56
2021/08/31 03:48:53;;;;;;;28.83;22.00;;;;;;;;;;2081387;28;20657;-53
2021/08/31 03:49:54;;;;;;;27.77;21.27;;;;;;;;;;2079024;28;20168;-52
2021/08/31 03:50:54;;;;;;;25.85;21.70;;;;;;;;;;2081234;28;20176;-56
2021/08/31 03:51:54;;;;;;;27.25;21.15;;;;;;;;;;2081706;28;20169;-53
2021/08/31 03:52:54;;;;;;;24.90;20.88;;;;;;;;;;2081114;28;20212;-54
2021/08/31 03:53:55;;;;;;;27.92;21.98;;;;;;;;;;2081379;28;20168;-57
2021/08/31 03:54:55;;;;;;;26.00;21.35;;;;;;;;;;2089179;28;20279;-53
2021/08/31 03:55:56;;;;;;;28.88;22.50;;;;;;;;;;2089721;28;20222;-56
2021/08/31 03:56:56;;;;;;;24.55;21.27;;;;;;;;;;2087169;28;20660;-54
2021/08/31 03:57:56;;;;;;;26.23;22.50;;;;;;;;;;2086638;28;20226;-52
2021/08/31 03:58:56;;;;;;;26.98;21.17;;;;;;;;;;2089795;28;20180;-52
2021/08/31 03:59:56;;;;;;;25.00;22.30;;;;;;;;;;2088700;28;20246;-55
2021/08/31 04:00:57;;;;;;;23.10;20.65;;;;;;;;;;2089716;28;20176;-53
2021/08/31 04:01:57;;;;;;;25.02;20.17;;;;;;;;;;2089664;28;20172;-56
2021/08/31 04:02:57;;;;;;;28.00;22.92;;;;;;;;;;2089950;28;20241;-56
2021/08/31 04:03:57;;;;;;;27.60;20.83;;;;;;;;;;2090073;28;20184;-54
2021/08/31 04:04:58;;;;;;;31.38;22.63;;;;;;;;;;2087833;28;20576;-56
2021/08/31 04:05:58;;;;;;;27.42;21.20;;;;;;;;;;2089886;28;20234;-56
2021/08/31 04:06:58;;;;;;;27.45;21.65;;;;;;;;;;2089196;28;20267;-55
2021/08/31 04:07:59;;;;;;;31.77;22.92;;;;;;;;;;2087918;28;20387;-57
2021/08/31 04:08:59;;;;;;;32.67;22.63;;;;;;;;;;2089782;28;20182;-55
2021/08/31 04:09:59;;;;;;;28.17;22.73;;;;;;;;;;2087337;28;20176;-56
2021/08/31 04:11:00;;;;;;;34.00;23.33;;;;;;;;;;2089712;28;20226;-56
2021/08/31 04:12:00;;;;;;;39.78;24.08;;;;;;;;;;2089620;28;20175;-56
2021/08/31 04:13:00;;;;;;;36.45;23.52;;;;;;;;;;2088427;28;20605;-52
2021/08/31 04:14:01;;;;;;;32.17;23.00;;;;;;;;;;2089871;28;20521;-55
2021/08/31 04:15:02;;;;;;;41.08;26.20;;;;;;;;;;2089738;28;20277;-55
2021/08/31 04:16:02;;;;;;;38.28;24.48;;;;;;;;;;2089131;28;20213;-53
2021/08/31 04:17:02;;;;;;;36.40;24.67;;;;;;;;;;2090380;28;20184;-55
2021/08/31 04:18:04;;;;;;;38.60;25.70;;;;;;;;;;2087903;28;20278;-56
2021/08/31 04:19:04;;;;;;;37.25;26.15;;;;;;;;;;2089684;28;20670;-56
2021/08/31 04:20:05;;;;;;;44.05;26.13;;;;;;;;;;2080109;28;20208;-53
2021/08/31 04:21:05;;;;;;;38.13;26.42;;;;;;;;;;2081687;28;20207;-51
2021/08/31 04:22:06;;;;;;;44.28;27.17;;;;;;;;;;2090125;28;20206;-51
2021/08/31 04:23:06;;;;;;;46.53;26.50;;;;;;;;;;2089540;28;20277;-55
2021/08/31 04:24:07;;;;;;;46.65;27.20;;;;;;;;;;2090004;28;20174;-53
2021/08/31 04:25:07;;;;;;;44.78;27.42;;;;;;;;;;2088889;28;20184;-52
2021/08/31 04:26:07;;;;;;;64.05;27.40;;;;;;;;;;2089633;28;20612;-52
2021/08/31 04:27:08;;;;;;;46.58;27.40;;;;;;;;;;2086973;28;20176;-52
2021/08/31 04:28:08;;;;;;;43.72;27.50;;;;;;;;;;2085951;28;20353;-53
2021/08/31 04:29:09;;;;;;;42.55;27.95;;;;;;;;;;2089837;28;20574;-56
2021/08/31 04:30:09;;;;;;;48.22;28.17;;;;;;;;;;2087331;28;20199;-58
2021/08/31 04:31:09;;;;;;;51.50;31.30;;;;;;;;;;2089912;28;20271;-58
2021/08/31 04:32:10;;;;;;;62.42;29.95;;;;;;;;;;2089355;28;20665;-55
2021/08/31 04:33:10;;;;;;;54.58;30.48;;;;;;;;;;2089644;28;20163;-58
2021/08/31 04:34:10;;;;;;;55.38;30.50;;;;;;;;;;2089311;28;20176;-57
2021/08/31 04:35:10;;;;;;;47.42;28.23;;;;;;;;;;2087707;28;20172;-55
2021/08/31 04:36:11;;;;;;;53.60;30.40;;;;;;;;;;2090188;28;20225;-57
2021/08/31 04:37:11;;;;;;;72.00;30.70;;;;;;;;;;2089762;28;20183;-58
2021/08/31 04:38:11;;;;;;;61.40;31.50;;;;;;;;;;2082428;28;20468;-55
2021/08/31 04:39:12;;;;;;;63.65;31.15;;;;;;;;;;2087665;28;20309;-54
2021/08/31 04:40:13;;;;;;;64.95;30.48;;;;;;;;;;2083922;28;20520;-53
2021/08/31 04:41:13;;;;;;;61.85;31.00;;;;;;;;;;2081930;28;20584;-56
2021/08/31 04:42:13;;;;;;;65.93;30.48;;;;;;;;;;2082024;28;20200;-55
2021/08/31 04:43:13;;;;;;;53.05;31.23;;;;;;;;;;2085738;28;20189;-56
2021/08/31 04:44:14;;;;;;;72.30;32.33;;;;;;;;;;2089485;28;20305;-57
2021/08/31 04:45:14;;;;;;;62.90;32.30;;;;;;;;;;2090231;28;20167;-57
2021/08/31 04:46:14;;;;;;;84.38;31.60;;;;;;;;;;2090309;28;20659;-57
2021/08/31 04:47:17;;;;;;;80.20;34.35;;;;;;;;;;2090228;28;20271;-51
2021/08/31 04:48:18;;;;;;;66.78;33.97;;;;;;;;;;2084986;28;20196;-55
2021/08/31 04:49:18;;;;;;;73.97;33.88;;;;;;;;;;2073196;28;20161;-56
2021/08/31 04:50:18;;;;;;;71.53;33.78;;;;;;;;;;2079747;28;20637;-54
2021/08/31 04:51:18;;;;;;;76.47;32.97;;;;;;;;;;2090117;28;20541;-58
2021/08/31 04:52:19;;;;;;;67.53;33.80;;;;;;;;;;2088920;28;20180;-55
2021/08/31 04:53:20;;;;;;;80.07;33.03;;;;;;;;;;2085842;28;20202;-54
2021/08/31 04:54:21;;;;;;;74.25;33.58;;;;;;;;;;2073295;28;20260;-54
2021/08/31 04:55:21;;;;;;;77.80;34.45;;;;;;;;;;2084427;28;20255;-52
2021/08/31 04:56:21;;;;;;;69.70;33.10;;;;;;;;;;2080596;28;20186;-53
2021/08/31 04:57:21;;;;;;;70.90;33.47;;;;;;;;;;2068799;28;20185;-55
2021/08/31 04:58:22;;;;;;;79.72;34.15;;;;;;;;;;2064250;28;20170;-51
2021/08/31 04:59:22;;;;;;;72.05;35.65;;;;;;;;;;2068679;28;20568;-52
2021/08/31 05:00:22;;;;;;;61.53;33.50;;;;;;;;;;2075290;23;20581;-53
2021/08/31 05:01:23;;;;;;;65.80;32.17;;;;;;;;;;2064003;28;20192;-54
2021/08/31 05:02:23;;;;;;;70.63;33.72;;;;;;;;;;2077603;28;20400;-55
2021/08/31 05:03:23;;;;;;;102.32;35.95;;;;;;;;;;2079905;28;20172;-53
2021/08/31 05:04:30;;;;;;;71.50;32.75;;;;;;;;;;2077933;28;20196;-55
2021/08/31 05:05:30;;;;;;;59.60;32.00;;;;;;;;;;2078811;28;20218;-51
2021/08/31 05:06:31;;;;;;;75.35;35.55;;;;;;;;;;2074837;28;20315;-55
2021/08/31 05:07:31;;;;;;;77.18;34.75;;;;;;;;;;2081234;28;20184;-52
2021/08/31 05:08:31;;;;;;;58.20;33.13;;;;;;;;;;2080674;28;20255;-53
2021/08/31 05:09:32;;;;;;;67.10;33.65;;;;;;;;;;2072513;28;20666;-54
2021/08/31 05:10:32;;;;;;;74.35;35.13;;;;;;;;;;2072955;28;20235;-51
2021/08/31 05:11:32;;;;;;;64.70;31.98;;;;;;;;;;2081778;28;20322;-54
2021/08/31 05:12:32;;;;;;;71.18;32.38;;;;;;;;;;2081780;28;20590;-56
2021/08/31 05:13:39;;;;;;;60.92;32.70;;;;;;;;;;2082065;28;20172;-54
2021/08/31 05:14:40;;;;;;;73.95;33.88;;;;;;;;;;2073899;28;20157;-55
2021/08/31 05:15:40;;;;;;;80.05;32.53;;;;;;;;;;2073773;28;20216;-50
2021/08/31 05:16:40;;;;;;;67.47;32.58;;;;;;;;;;2077853;28;20183;-53
2021/08/31 05:17:41;;;;;;;69.70;33.22;;;;;;;;;;2079920;28;20181;-54
2021/08/31 05:18:41;;;;;;;72.80;32.60;;;;;;;;;;2081243;28;20262;-56
2021/08/31 05:19:42;;;;;;;56.47;30.13;;;;;;;;;;2081307;28;20164;-53
2021/08/31 05:20:43;;;;;;;64.25;29.92;;;;;;;;;;2080496;28;20212;-53
2021/08/31 05:21:43;;;;;;;77.70;32.30;;;;;;;;;;2081847;28;20171;-52
2021/08/31 05:22:44;;;;;;;77.35;33.97;;;;;;;;;;2082223;28;20160;-66
2021/08/31 05:23:44;;;;;;;81.60;33.88;;;;;;;;;;2081645;28;20178;-53
2021/08/31 05:24:46;;;;;;;75.10;30.67;;;;;;;;;;2082936;28;20225;-56
2021/08/31 05:25:46;;;;;;;88.10;35.97;;;;;;;;;;2082878;28;20188;-58
2021/08/31 05:26:46;;;;;;;85.95;32.85;;;;;;;;;;2082577;28;20169;-55
2021/08/31 05:27:47;;;;;;;76.57;34.40;;;;;;;;;;2082668;28;20188;-54
2021/08/31 05:28:47;;;;;;;77.00;33.60;;;;;;;;;;2078950;28;20188;-53
2021/08/31 05:29:47;;;;;;;74.03;32.55;;;;;;;;;;2070945;28;20215;-54
2021/08/31 05:30:48;;;;;;;73.35;32.88;;;;;;;;;;2074363;28;20204;-52
2021/08/31 05:31:48;;;;;;;88.57;36.00;;;;;;;;;;2085635;28;20258;-50
2021/08/31 05:32:48;;;;;;;73.22;31.60;;;;;;;;;;2080284;28;20178;-53
2021/08/31 05:33:48;;;;;;;68.18;32.38;;;;;;;;;;2084687;28;20171;-56
2021/08/31 05:34:49;;;;;;;66.82;34.63;;;;;;;;;;2075864;28;20591;-60
2021/08/31 05:35:49;;;;;;;74.47;31.38;;;;;;;;;;2074918;28;20173;-57
2021/08/31 05:36:49;;;;;;;63.05;31.13;;;;;;;;;;2076967;28;20181;-55
2021/08/31 05:37:49;;;;;;;75.22;32.72;;;;;;;;;;2076114;28;20283;-56
2021/08/31 05:38:50;;;;;;;80.95;31.38;;;;;;;;;;2084674;28;20222;-54
2021/08/31 05:39:50;;;;;;;69.70;31.15;;;;;;;;;;2084261;28;20251;-55
2021/08/31 05:40:50;;;;;;;69.95;31.15;;;;;;;;;;2085942;28;20797;-55
2021/08/31 05:41:50;;;;;;;67.97;31.75;;;;;;;;;;2083135;28;21040;-55
2021/08/31 05:42:51;;;;;;;60.60;32.47;;;;;;;;;;2083736;28;20190;-54
2021/08/31 05:43:51;;;;;;;63.28;33.00;;;;;;;;;;2083043;28;20168;-57
2021/08/31 05:44:51;;;;;;;75.57;31.63;;;;;;;;;;2077160;28;20633;-52
2021/08/31 05:45:51;;;;;;;69.22;31.50;;;;;;;;;;2081912;28;20179;-55
2021/08/31 05:46:52;;;;;;;78.90;33.05;;;;;;;;;;2083307;28;20212;-55
2021/08/31 05:47:52;;;;;;;71.10;32.50;;;;;;;;;;2084508;28;20175;-52
2021/08/31 05:48:52;;;;;;;68.03;30.35;;;;;;;;;;2082224;28;20173;-55
2021/08/31 05:49:52;;;;;;;75.38;31.40;;;;;;;;;;2084961;28;20263;-51
2021/08/31 05:50:53;;;;;;;65.47;31.35;;;;;;;;;;2084757;28;20187;-53
2021/08/31 05:51:53;;;;;;;55.25;29.88;;;;;;;;;;2086648;28;20327;-57